Gotebo, Oklahoma
Current Conditions -  °F | °C
As of 3:53 PM on Monday 20 Oct 2014 (Local Time) from KHBR Reporting Station
Broken Clouds Broken Clouds  
Wind Chill: 82°   Ceiling: 6500
Heat Index: 82°   Visibility: 9mi
Dew Point: 58°   Wind: 0mph
Humidity: 44%   Direction: NA
Pressure: 30.01"   Gusts: NA
Location:  35.07°N, 98.87°W
Report Text: KHBR 202053Z AUTO 00000KT 9SM BKN065 28/14 A3001 RMK AO2 SLP147 T02780144 56017
Loading
Personal Weather Stations






























Interactive Weather Map
Tropical Storm Tracking
New forecast layout! Learn more

10-Day Weather Forecast

Advertisements
Track Severe Weather on mobile